Time;durP1;ratioP1;P1;durP2;ratioP2;P2;SDS_P1;SDS_P2;PMS_P1;PMS_P2;Temp;Humidity;BMP_temperature;BMP_pressure;BME280_temperature;BME280_humidity;BME280_pressure;Samples;Min_cycle;Max_cycle;Signal;HPM_P1;HPM_P2
2023/02/14 00:01:39;;;;;;;35.33;19.83;;;7.80;99.90;;;;;;6246227;23;20139;-76
2023/02/14 00:04:04;;;;;;;39.33;21.80;;;7.80;99.90;;;;;;6244675;23;20151;-75
2023/02/14 00:06:35;;;;;;;38.63;21.43;;;7.80;99.90;;;;;;6245899;23;20139;-75
2023/02/14 00:09:02;;;;;;;40.00;21.43;;;7.80;99.90;;;;;;6246350;23;20560;-75
2023/02/14 00:11:28;;;;;;;38.77;21.10;;;7.80;99.90;;;;;;6245916;23;20137;-74
2023/02/14 00:16:39;;;;;;;40.13;21.20;;;7.70;99.90;;;;;;6246094;23;20146;-75
2023/02/14 00:19:05;;;;;;;34.87;20.90;;;7.70;99.90;;;;;;6218821;23;20499;-75
2023/02/14 00:21:34;;;;;;;35.43;20.47;;;7.70;99.90;;;;;;6245852;23;20448;-75
2023/02/14 00:24:03;;;;;;;33.57;20.80;;;7.70;99.90;;;;;;6219266;23;20144;-75
2023/02/14 00:26:29;;;;;;;35.00;20.93;;;7.70;99.90;;;;;;6219001;23;20569;-75
2023/02/14 00:28:56;;;;;;;37.67;21.33;;;7.60;99.90;;;;;;6246589;23;20634;-75
2023/02/14 00:31:22;;;;;;;37.80;21.80;;;7.60;99.90;;;;;;6245919;23;20136;-75
2023/02/14 00:33:47;;;;;;;37.47;21.67;;;7.60;99.90;;;;;;6245957;23;20568;-76
2023/02/14 00:36:13;;;;;;;33.70;20.60;;;7.60;99.90;;;;;;6218802;23;20147;-77
2023/02/14 00:38:39;;;;;;;35.40;21.57;;;7.60;99.90;;;;;;6245971;23;20159;-76
2023/02/14 00:41:06;;;;;;;34.47;20.80;;;7.60;99.90;;;;;;6245772;23;20190;-74
2023/02/14 00:43:32;;;;;;;38.03;20.87;;;7.60;99.90;;;;;;6218756;23;20639;-75
2023/02/14 00:46:00;;;;;;;35.30;19.87;;;7.60;99.90;;;;;;6218653;23;20143;-74
2023/02/14 00:48:28;;;;;;;35.40;20.37;;;7.50;99.90;;;;;;6243737;23;20147;-73
2023/02/14 00:50:54;;;;;;;40.23;22.40;;;7.50;99.90;;;;;;6245503;23;20135;-74
2023/02/14 00:53:20;;;;;;;37.73;22.00;;;7.50;99.90;;;;;;6245474;23;20128;-75
2023/02/14 00:55:48;;;;;;;34.00;21.00;;;7.50;99.90;;;;;;6245417;23;20199;-74
2023/02/14 00:58:13;;;;;;;38.00;22.40;;;7.40;99.90;;;;;;6244887;23;20171;-75
2023/02/14 01:00:39;;;;;;;37.23;22.47;;;7.40;99.90;;;;;;6245914;23;20143;-73
2023/02/14 01:03:06;;;;;;;35.60;21.27;;;7.40;99.90;;;;;;6218573;23;20178;-75
2023/02/14 01:05:31;;;;;;;37.43;21.47;;;7.40;99.90;;;;;;6244385;23;20151;-77
2023/02/14 01:07:57;;;;;;;37.50;20.87;;;7.40;99.90;;;;;;6219379;23;20655;-75
2023/02/14 01:10:23;;;;;;;35.80;21.17;;;7.40;99.90;;;;;;6245318;23;20177;-74
2023/02/14 01:12:48;;;;;;;34.80;20.87;;;7.40;99.90;;;;;;6218769;23;20565;-75
2023/02/14 01:15:14;;;;;;;35.23;21.20;;;7.30;99.90;;;;;;6246005;23;20229;-74
2023/02/14 01:17:39;;;;;;;34.80;20.80;;;7.30;99.90;;;;;;6245777;23;20165;-75
2023/02/14 01:20:06;;;;;;;36.87;22.27;;;7.30;99.90;;;;;;6218777;23;20151;-74
2023/02/14 01:22:39;;;;;;;35.53;21.27;;;7.30;99.90;;;;;;6245712;23;20572;-74
2023/02/14 01:25:05;;;;;;;34.63;20.63;;;7.30;99.90;;;;;;6245055;23;20198;-74
2023/02/14 01:27:32;;;;;;;39.43;22.10;;;7.20;99.90;;;;;;6245534;23;20469;-74
2023/02/14 01:29:58;;;;;;;33.83;21.03;;;7.20;99.90;;;;;;6245511;23;20135;-74
2023/02/14 01:32:23;;;;;;;33.27;19.37;;;7.20;99.90;;;;;;6245666;23;20135;-74
2023/02/14 01:34:51;;;;;;;36.30;21.60;;;7.20;99.90;;;;;;6245147;23;20473;-75
2023/02/14 01:37:17;;;;;;;36.23;21.40;;;7.10;99.90;;;;;;6218668;23;20174;-74
2023/02/14 01:39:42;;;;;;;38.37;21.20;;;7.10;99.90;;;;;;6245090;23;20142;-74
2023/02/14 01:42:09;;;;;;;35.00;20.77;;;7.10;99.90;;;;;;6245036;23;20624;-74
2023/02/14 01:44:35;;;;;;;35.93;21.30;;;7.10;99.90;;;;;;6218026;23;20159;-75
2023/02/14 01:47:05;;;;;;;36.33;21.10;;;7.00;99.90;;;;;;6218613;23;20548;-74
2023/02/14 01:49:58;;;;;;;38.07;23.10;;;7.10;99.90;;;;;;6245151;23;20132;-74
2023/02/14 01:52:31;;;;;;;34.80;22.27;;;7.00;99.90;;;;;;6221250;23;20303;-74
2023/02/14 01:55:06;;;;;;;36.07;21.30;;;7.00;99.90;;;;;;6217688;23;20229;-74
2023/02/14 01:57:42;;;;;;;39.37;22.93;;;7.00;99.90;;;;;;6244656;23;20710;-75
2023/02/14 02:02:55;;;;;;;38.23;21.70;;;7.00;99.90;;;;;;6245068;23;20158;-74
2023/02/14 02:05:22;;;;;;;38.87;20.60;;;7.00;99.90;;;;;;6217976;23;20225;-74
2023/02/14 02:07:50;;;;;;;39.07;22.10;;;7.00;99.90;;;;;;6245324;23;20196;-75
2023/02/14 02:10:16;;;;;;;32.93;20.57;;;7.00;99.90;;;;;;6217973;23;20157;-73
2023/02/14 02:12:43;;;;;;;34.53;20.67;;;6.90;99.90;;;;;;6244857;23;20165;-74
2023/02/14 02:15:08;;;;;;;33.07;20.57;;;6.90;99.90;;;;;;6218179;23;20187;-74
2023/02/14 02:18:02;;;;;;;34.40;20.37;;;6.80;99.90;;;;;;6243355;23;20175;-75
2023/02/14 02:20:27;;;;;;;34.40;20.87;;;6.70;99.90;;;;;;6217949;23;20147;-75
2023/02/14 02:23:18;;;;;;;34.33;20.30;;;6.70;99.90;;;;;;6244749;23;20565;-75
2023/02/14 02:25:49;;;;;;;37.20;21.87;;;6.60;99.90;;;;;;6244932;23;20225;-77
2023/02/14 02:28:52;;;;;;;35.57;21.27;;;6.60;99.90;;;;;;6244896;23;20142;-75
2023/02/14 02:31:27;;;;;;;37.20;21.83;;;6.70;99.90;;;;;;6244585;23;20508;-74
2023/02/14 02:33:53;;;;;;;34.20;20.20;;;6.60;99.90;;;;;;6244854;23;20141;-74
2023/02/14 02:36:30;;;;;;;33.87;21.20;;;6.60;99.90;;;;;;6245760;23;20135;-74
2023/02/14 02:39:09;;;;;;;35.17;20.63;;;6.50;99.90;;;;;;6247108;23;20165;-74
2023/02/14 02:42:03;;;;;;;35.30;20.43;;;6.50;99.90;;;;;;6244528;23;20216;-75
2023/02/14 02:44:50;;;;;;;37.33;20.80;;;6.40;99.90;;;;;;6246777;23;20131;-74
2023/02/14 02:47:19;;;;;;;34.67;20.17;;;6.40;99.90;;;;;;6220006;23;20147;-75
2023/02/14 02:53:22;;;;;;;32.90;19.87;;;6.40;99.90;;;;;;6195764;23;20153;-74
2023/02/14 02:58:46;;;;;;;34.80;20.10;;;6.30;99.90;;;;;;6246672;23;20541;-73
2023/02/14 03:01:16;;;;;;;36.70;21.63;;;6.30;99.90;;;;;;6246614;23;20134;-74
2023/02/14 03:06:31;;;;;;;35.27;20.83;;;6.20;99.90;;;;;;6246588;23;20237;-74
2023/02/14 03:09:08;;;;;;;35.23;19.87;;;6.20;99.90;;;;;;6246587;23;20132;-75
2023/02/14 03:11:36;;;;;;;34.03;20.23;;;6.20;99.90;;;;;;6246402;23;20139;-75
2023/02/14 03:14:21;;;;;;;33.23;19.50;;;6.10;99.90;;;;;;6246970;23;20559;-74
2023/02/14 03:17:03;;;;;;;33.87;19.60;;;6.10;99.90;;;;;;6245297;23;20161;-74
2023/02/14 03:22:35;;;;;;;31.70;18.47;;;6.00;99.90;;;;;;6246578;23;20138;-74
2023/02/14 03:25:21;;;;;;;35.60;20.17;;;5.90;99.90;;;;;;6247227;23;20143;-73
2023/02/14 03:27:56;;;;;;;34.40;19.90;;;5.80;99.90;;;;;;6244687;23;20162;-74
2023/02/14 03:30:39;;;;;;;38.47;20.53;;;5.80;99.90;;;;;;6247152;23;20163;-74
2023/02/14 03:33:28;;;;;;;38.63;22.07;;;5.80;99.90;;;;;;6246632;23;20139;-76
2023/02/14 03:36:09;;;;;;;36.80;20.90;;;5.80;99.90;;;;;;6247068;23;20161;-74
2023/02/14 03:38:44;;;;;;;33.63;19.67;;;5.80;99.90;;;;;;6246468;23;20165;-74
2023/02/14 03:41:16;;;;;;;34.00;20.90;;;5.80;99.90;;;;;;6247130;23;20127;-74
2023/02/14 03:43:48;;;;;;;32.40;19.57;;;5.90;99.90;;;;;;6220111;23;20142;-74
2023/02/14 03:46:24;;;;;;;35.70;20.27;;;5.80;99.90;;;;;;6246703;23;20213;-76
2023/02/14 03:48:52;;;;;;;33.63;20.30;;;5.80;99.90;;;;;;6246654;23;20139;-75
2023/02/14 03:51:21;;;;;;;33.63;19.67;;;5.70;99.90;;;;;;6246850;23;20133;-74
2023/02/14 03:53:52;;;;;;;37.03;20.30;;;5.80;99.90;;;;;;6247230;23;20628;-74
2023/02/14 03:56:34;;;;;;;34.07;20.37;;;5.80;99.90;;;;;;6247711;23;20603;-75
2023/02/14 03:59:12;;;;;;;36.37;19.53;;;5.70;99.90;;;;;;6247263;23;20619;-75
2023/02/14 04:02:03;;;;;;;35.03;20.20;;;5.70;99.90;;;;;;6246022;23;20460;-75
2023/02/14 04:04:34;;;;;;;37.40;20.90;;;5.70;99.90;;;;;;6244445;23;20141;-75
2023/02/14 04:07:12;;;;;;;33.73;21.03;;;5.60;99.90;;;;;;6245727;23;20130;-75
2023/02/14 04:09:39;;;;;;;36.77;20.77;;;5.70;99.90;;;;;;6246201;23;20134;-74
2023/02/14 04:12:05;;;;;;;34.67;21.00;;;5.70;99.90;;;;;;6218609;23;20138;-75
2023/02/14 04:14:32;;;;;;;37.93;21.13;;;5.70;99.90;;;;;;6245844;23;20471;-75
2023/02/14 04:19:42;;;;;;;32.53;18.77;;;5.70;99.90;;;;;;6245979;23;20161;-75
2023/02/14 04:22:07;;;;;;;33.47;19.63;;;5.70;99.90;;;;;;6245902;23;20570;-75
2023/02/14 04:24:33;;;;;;;35.07;20.20;;;5.70;99.90;;;;;;6244771;23;20154;-75
2023/02/14 04:27:10;;;;;;;37.80;20.03;;;5.70;99.90;;;;;;6246781;23;20225;-75
2023/02/14 04:29:43;;;;;;;35.80;19.90;;;5.70;99.90;;;;;;6219044;23;20228;-75
2023/02/14 04:32:13;;;;;;;36.47;20.53;;;5.80;99.90;;;;;;6246403;23;20264;-75
2023/02/14 04:34:38;;;;;;;41.13;20.73;;;5.80;99.90;;;;;;6246578;23;20130;-74
2023/02/14 04:37:04;;;;;;;35.13;19.73;;;5.80;99.90;;;;;;6246540;23;20146;-75
2023/02/14 04:39:30;;;;;;;35.27;20.03;;;5.80;99.90;;;;;;6245983;23;20213;-74
2023/02/14 04:41:56;;;;;;;36.10;19.83;;;5.80;99.90;;;;;;6246060;23;20138;-74
2023/02/14 04:44:22;;;;;;;35.00;20.87;;;5.80;99.90;;;;;;6219473;23;20144;-74
2023/02/14 04:46:47;;;;;;;38.90;20.83;;;5.80;99.90;;;;;;6245886;23;20147;-75
2023/02/14 04:49:13;;;;;;;36.63;20.07;;;5.80;99.90;;;;;;6246023;23;20206;-75
2023/02/14 04:51:39;;;;;;;31.50;18.30;;;5.70;99.90;;;;;;6218483;23;20640;-74
2023/02/14 04:54:04;;;;;;;35.90;19.40;;;5.70;99.90;;;;;;6246688;23;20209;-75
2023/02/14 04:56:30;;;;;;;31.77;18.67;;;5.60;99.90;;;;;;6246046;23;20162;-75
2023/02/14 04:58:56;;;;;;;34.03;19.03;;;5.60;99.90;;;;;;6245133;23;20163;-74
2023/02/14 05:01:21;;;;;;;33.00;19.60;;;5.50;99.90;;;;;;6245984;23;20580;-74
2023/02/14 05:03:48;;;;;;;35.07;19.70;;;5.50;99.90;;;;;;6245299;23;20177;-74
2023/02/14 05:06:14;;;;;;;34.43;19.70;;;5.50;99.90;;;;;;6245554;23;20229;-73
2023/02/14 05:08:41;;;;;;;36.70;20.07;;;5.50;99.90;;;;;;6245546;23;20172;-75
2023/02/14 05:11:07;;;;;;;34.80;20.10;;;5.50;99.90;;;;;;6245112;23;20145;-75
2023/02/14 05:13:33;;;;;;;33.87;20.17;;;5.50;99.90;;;;;;6245442;23;20137;-75
2023/02/14 05:16:00;;;;;;;34.87;19.37;;;5.50;99.90;;;;;;6244240;23;20146;-74
2023/02/14 05:18:26;;;;;;;35.60;19.17;;;5.50;99.90;;;;;;6245953;23;20198;-74
2023/02/14 05:20:53;;;;;;;34.50;19.20;;;5.50;99.90;;;;;;6245298;23;20130;-75
2023/02/14 05:23:19;;;;;;;38.50;20.07;;;5.50;99.90;;;;;;6218608;23;20138;-74
2023/02/14 05:25:47;;;;;;;36.30;19.30;;;5.50;99.90;;;;;;6243675;23;20146;-75
2023/02/14 05:28:13;;;;;;;34.97;19.60;;;5.50;99.90;;;;;;6218845;23;20158;-75
2023/02/14 05:30:39;;;;;;;33.47;19.60;;;5.50;99.90;;;;;;6218453;23;20561;-75
2023/02/14 05:33:04;;;;;;;34.40;19.20;;;5.50;99.90;;;;;;6218633;23;20146;-75
2023/02/14 05:35:30;;;;;;;32.80;19.80;;;5.50;99.90;;;;;;6245197;23;20218;-75
2023/02/14 05:37:57;;;;;;;34.23;19.83;;;5.50;99.90;;;;;;6245618;23;20179;-75
2023/02/14 05:40:30;;;;;;;31.53;18.97;;;5.50;99.90;;;;;;6218503;23;20266;-79
2023/02/14 05:42:56;;;;;;;35.10;20.43;;;5.50;99.90;;;;;;6246650;23;20138;-75
2023/02/14 05:45:25;;;;;;;36.60;20.07;;;5.50;99.90;;;;;;6246339;23;20135;-75
2023/02/14 05:47:52;;;;;;;31.50;18.93;;;5.50;99.90;;;;;;6246229;23;20198;-75
2023/02/14 05:50:20;;;;;;;35.13;20.20;;;5.60;99.90;;;;;;6219402;23;20588;-75
2023/02/14 05:52:46;;;;;;;36.23;20.57;;;5.50;99.90;;;;;;6245965;23;20150;-75
2023/02/14 05:55:12;;;;;;;32.63;19.17;;;5.50;99.90;;;;;;6246284;23;20232;-75
2023/02/14 05:57:49;;;;;;;37.07;20.03;;;5.50;99.90;;;;;;6245887;23;20553;-76
2023/02/14 06:00:18;;;;;;;36.90;19.30;;;5.50;99.90;;;;;;6245382;23;20669;-75
2023/02/14 06:02:44;;;;;;;29.77;18.60;;;5.50;99.90;;;;;;6243803;23;20154;-75
2023/02/14 06:05:14;;;;;;;32.80;18.77;;;5.50;99.90;;;;;;6245897;23;20135;-75
2023/02/14 06:07:42;;;;;;;32.73;18.97;;;5.50;99.90;;;;;;6245845;23;20617;-75
2023/02/14 06:10:14;;;;;;;33.50;18.50;;;5.50;99.90;;;;;;6219055;23;20149;-75
2023/02/14 06:12:41;;;;;;;31.00;17.60;;;5.40;99.90;;;;;;6245221;23;20145;-75
2023/02/14 06:15:08;;;;;;;30.43;18.63;;;5.30;99.90;;;;;;6218860;23;20575;-75
2023/02/14 06:17:35;;;;;;;33.90;18.97;;;5.30;99.90;;;;;;6245474;23;20200;-75
2023/02/14 06:20:00;;;;;;;31.47;18.03;;;5.20;99.90;;;;;;6245460;23;20133;-75
2023/02/14 06:22:28;;;;;;;33.17;19.27;;;5.20;99.90;;;;;;6245447;23;20133;-75
2023/02/14 06:24:56;;;;;;;30.57;18.77;;;5.10;99.90;;;;;;6245417;23;20156;-75
2023/02/14 06:27:21;;;;;;;34.93;19.80;;;5.10;99.90;;;;;;6245618;23;20531;-75
2023/02/14 06:29:50;;;;;;;34.87;19.63;;;5.00;99.90;;;;;;6245675;23;20181;-75
2023/02/14 06:32:16;;;;;;;33.47;19.73;;;5.00;99.90;;;;;;6245543;23;20655;-75
2023/02/14 06:34:44;;;;;;;33.37;19.53;;;4.90;99.90;;;;;;6244081;23;20181;-75
2023/02/14 06:37:16;;;;;;;34.27;19.27;;;5.00;99.90;;;;;;6245560;23;20157;-76
2023/02/14 06:39:41;;;;;;;35.93;19.83;;;5.00;99.90;;;;;;6218893;23;20190;-74
2023/02/14 06:42:10;;;;;;;36.33;20.37;;;4.90;99.90;;;;;;6245499;23;20180;-76
2023/02/14 06:44:39;;;;;;;35.00;20.10;;;4.90;99.90;;;;;;6245926;23;20565;-74
2023/02/14 06:47:17;;;;;;;36.23;20.50;;;4.90;99.90;;;;;;6245375;23;20605;-76
2023/02/14 06:49:44;;;;;;;38.40;20.87;;;4.90;99.90;;;;;;6218691;23;20158;-74
2023/02/14 06:52:11;;;;;;;34.10;20.10;;;4.90;99.90;;;;;;6245160;23;20137;-75
2023/02/14 06:54:41;;;;;;;38.57;22.60;;;4.90;99.90;;;;;;6245611;23;20129;-75
2023/02/14 06:57:07;;;;;;;39.03;21.23;;;4.90;99.90;;;;;;6245287;23;20159;-75
2023/02/14 06:59:34;;;;;;;37.70;20.40;;;4.90;99.90;;;;;;6245943;23;20138;-75
2023/02/14 07:02:00;;;;;;;33.30;19.57;;;4.90;99.90;;;;;;6218752;23;20149;-74
2023/02/14 07:04:25;;;;;;;32.67;19.67;;;4.90;99.90;;;;;;6243789;23;20251;-77
2023/02/14 07:06:51;;;;;;;33.50;20.67;;;4.90;99.90;;;;;;6217389;23;20177;-75
2023/02/14 07:09:17;;;;;;;32.80;20.13;;;4.90;99.90;;;;;;6245283;23;20667;-75
2023/02/14 07:11:45;;;;;;;39.70;22.30;;;4.90;99.90;;;;;;6218284;23;20590;-77
2023/02/14 07:14:12;;;;;;;36.33;20.13;;;4.80;99.90;;;;;;6217469;23;20143;-78
2023/02/14 07:16:38;;;;;;;32.93;19.10;;;4.80;99.90;;;;;;6216769;23;20165;-77
2023/02/14 07:19:04;;;;;;;36.23;19.20;;;4.80;99.90;;;;;;6218239;23;20180;-77
2023/02/14 07:21:29;;;;;;;34.27;20.07;;;4.80;99.90;;;;;;6218137;23;20146;-78
2023/02/14 07:23:55;;;;;;;41.17;21.63;;;4.80;99.90;;;;;;6220260;23;20638;-77
2023/02/14 07:26:20;;;;;;;39.37;22.57;;;4.80;99.90;;;;;;6247231;23;20562;-77
2023/02/14 07:28:50;;;;;;;44.67;21.57;;;4.80;99.90;;;;;;6220322;23;20145;-78
2023/02/14 07:31:17;;;;;;;36.87;20.33;;;4.80;99.90;;;;;;6247153;23;20516;-77
2023/02/14 07:33:43;;;;;;;33.83;19.80;;;4.90;99.90;;;;;;6220592;23;20149;-77
2023/02/14 07:36:09;;;;;;;40.00;22.23;;;4.90;99.90;;;;;;6220242;23;20154;-77
2023/02/14 07:38:35;;;;;;;42.20;23.53;;;5.00;99.90;;;;;;6220303;23;20235;-78
2023/02/14 07:41:01;;;;;;;39.57;20.90;;;5.00;99.90;;;;;;6247263;23;20545;-77
2023/02/14 07:43:26;;;;;;;44.33;23.70;;;5.20;99.90;;;;;;6220299;23;20268;-77
2023/02/14 07:45:52;;;;;;;42.07;24.07;;;5.30;99.90;;;;;;6245486;23;20150;-77
2023/02/14 07:48:18;;;;;;;37.53;22.10;;;5.40;99.90;;;;;;6247076;23;20143;-77
2023/02/14 07:50:45;;;;;;;44.03;23.37;;;5.60;99.90;;;;;;6220767;23;20173;-77
2023/02/14 07:53:11;;;;;;;45.97;23.53;;;5.70;99.90;;;;;;6220164;23;20192;-78
2023/02/14 07:55:38;;;;;;;43.03;23.17;;;5.70;99.90;;;;;;6246250;23;20177;-78
2023/02/14 07:58:04;;;;;;;42.43;24.20;;;5.90;99.90;;;;;;6219704;23;20181;-78
2023/02/14 08:00:29;;;;;;;39.97;22.23;;;6.10;99.90;;;;;;6246681;23;20134;-77
2023/02/14 08:02:55;;;;;;;40.43;22.00;;;6.10;99.90;;;;;;6246652;23;20217;-78
2023/02/14 08:05:21;;;;;;;37.90;22.13;;;6.20;99.90;;;;;;6245256;23;20619;-78
2023/02/14 08:07:47;;;;;;;39.00;22.03;;;6.40;99.90;;;;;;6219999;23;20576;-77
2023/02/14 08:10:14;;;;;;;40.67;22.00;;;6.50;99.90;;;;;;6220782;23;20523;-77
2023/02/14 08:12:58;;;;;;;37.17;20.90;;;6.50;99.90;;;;;;6245696;23;20484;-79
2023/02/14 08:18:10;;;;;;;39.97;20.97;;;6.80;99.90;;;;;;6247459;23;20541;-77
2023/02/14 08:20:36;;;;;;;36.97;21.67;;;6.90;99.90;;;;;;6247026;23;20128;-78
2023/02/14 08:23:02;;;;;;;38.13;22.50;;;7.00;99.90;;;;;;6247074;23;20131;-78
2023/02/14 08:25:27;;;;;;;39.70;21.73;;;7.10;99.90;;;;;;6220438;23;20470;-78
2023/02/14 08:27:54;;;;;;;35.30;21.40;;;7.10;99.90;;;;;;6247261;23;20135;-78
2023/02/14 08:30:21;;;;;;;36.60;20.83;;;7.10;99.90;;;;;;6245889;23;20573;-78
2023/02/14 08:32:47;;;;;;;38.57;21.67;;;7.10;99.90;;;;;;6246920;23;20544;-78
2023/02/14 08:35:12;;;;;;;42.00;21.83;;;7.10;99.90;;;;;;6220329;23;20201;-78
2023/02/14 08:37:39;;;;;;;35.67;20.67;;;7.20;99.90;;;;;;6246190;23;20184;-78
2023/02/14 08:40:05;;;;;;;39.43;22.23;;;7.30;99.90;;;;;;6220247;23;20143;-78
2023/02/14 08:42:31;;;;;;;40.63;21.30;;;7.40;99.90;;;;;;6245988;23;20143;-77
2023/02/14 08:44:57;;;;;;;36.47;20.20;;;7.40;99.90;;;;;;6247021;23;20561;-77
2023/02/14 08:47:22;;;;;;;36.67;20.03;;;7.50;99.90;;;;;;6246407;23;20142;-78
2023/02/14 08:49:49;;;;;;;37.73;21.33;;;7.70;99.90;;;;;;6220060;23;20150;-78
2023/02/14 08:52:14;;;;;;;33.60;20.03;;;7.90;99.90;;;;;;6219634;23;20193;-78
2023/02/14 08:54:40;;;;;;;36.23;19.87;;;7.90;99.90;;;;;;6219650;23;20170;-78
2023/02/14 08:57:05;;;;;;;34.07;18.90;;;8.00;99.90;;;;;;6245313;23;20346;-77
2023/02/14 08:59:31;;;;;;;36.70;19.50;;;8.20;99.90;;;;;;6220049;23;20135;-77
2023/02/14 09:01:57;;;;;;;35.97;20.50;;;8.30;99.90;;;;;;6247295;23;20202;-77
2023/02/14 09:04:22;;;;;;;33.77;20.00;;;8.40;99.90;;;;;;6219680;23;20142;-77
2023/02/14 09:06:48;;;;;;;32.40;19.30;;;8.30;99.90;;;;;;6246916;23;20132;-77
2023/02/14 09:09:13;;;;;;;36.37;19.57;;;8.40;99.90;;;;;;6246909;23;20474;-78
2023/02/14 09:11:39;;;;;;;34.57;19.97;;;8.70;99.90;;;;;;6246346;23;20155;-77
2023/02/14 09:14:05;;;;;;;34.63;20.33;;;8.80;99.90;;;;;;6219497;23;20143;-77
2023/02/14 09:16:30;;;;;;;34.13;19.33;;;8.80;99.90;;;;;;6219483;23;20181;-77
2023/02/14 09:18:57;;;;;;;34.83;18.90;;;8.90;99.90;;;;;;6245080;23;20171;-77
2023/02/14 09:21:26;;;;;;;35.03;19.30;;;9.00;99.90;;;;;;6245211;23;20127;-77
2023/02/14 09:23:52;;;;;;;35.77;20.57;;;9.10;99.90;;;;;;6218455;23;20600;-77
2023/02/14 09:26:19;;;;;;;34.13;20.03;;;9.20;99.90;;;;;;6245301;23;20155;-78
2023/02/14 09:28:46;;;;;;;35.37;20.60;;;9.20;99.90;;;;;;6218649;23;20548;-77
2023/02/14 09:31:16;;;;;;;41.13;21.17;;;9.20;99.90;;;;;;6218334;23;20237;-77
2023/02/14 09:33:43;;;;;;;40.50;21.53;;;9.20;99.90;;;;;;6218546;23;20151;-77
2023/02/14 09:38:53;;;;;;;36.07;19.97;;;9.40;99.90;;;;;;6247024;23;20178;-78
2023/02/14 09:41:28;;;;;;;39.13;20.70;;;9.60;99.90;;;;;;6219352;23;20147;-77
2023/02/14 09:44:23;;;;;;;39.40;20.53;;;9.60;99.90;;;;;;6219889;23;20285;-78
2023/02/14 09:46:53;;;;;;;38.87;20.60;;;9.60;99.90;;;;;;6245498;23;20495;-77
2023/02/14 09:49:34;;;;;;;33.43;19.13;;;9.90;99.90;;;;;;6246703;23;20140;-77
2023/02/14 09:52:02;;;;;;;34.93;20.37;;;9.70;99.90;;;;;;6245259;23;20135;-77
2023/02/14 09:54:31;;;;;;;39.30;21.03;;;9.70;99.90;;;;;;6245354;23;20473;-77
2023/02/14 09:57:13;;;;;;;35.83;21.00;;;9.70;99.90;;;;;;6218178;23;20207;-78
2023/02/14 09:59:51;;;;;;;37.00;20.60;;;9.60;99.90;;;;;;6218236;23;20489;-78
2023/02/14 10:02:38;;;;;;;39.57;19.97;;;9.70;99.90;;;;;;6218493;23;20453;-78
2023/02/14 10:05:21;;;;;;;38.53;21.53;;;10.00;99.90;;;;;;6245574;23;20132;-79
2023/02/14 10:08:02;;;;;;;37.50;21.00;;;10.10;99.90;;;;;;6219880;23;20143;-78
2023/02/14 10:10:40;;;;;;;38.00;21.57;;;10.30;99.90;;;;;;6246119;23;20137;-78
2023/02/14 10:13:11;;;;;;;36.93;20.27;;;10.40;99.90;;;;;;6246180;23;20439;-78
2023/02/14 10:15:42;;;;;;;35.17;21.17;;;10.50;99.90;;;;;;6219805;23;20429;-78
2023/02/14 10:18:19;;;;;;;38.30;21.50;;;10.30;99.90;;;;;;6246076;23;20200;-78
2023/02/14 10:20:58;;;;;;;33.73;21.07;;;10.10;99.90;;;;;;6247601;23;20207;-79
2023/02/14 10:23:36;;;;;;;37.33;20.60;;;10.10;99.90;;;;;;6220847;23;20306;-79
2023/02/14 10:26:06;;;;;;;35.50;20.30;;;10.20;99.90;;;;;;6246636;23;20123;-77
2023/02/14 10:28:54;;;;;;;39.63;20.93;;;10.20;99.90;;;;;;6219690;23;20176;-78
2023/02/14 10:31:23;;;;;;;41.27;23.03;;;10.40;99.90;;;;;;6246643;23;20141;-78
2023/02/14 10:34:03;;;;;;;35.53;21.03;;;10.50;99.90;;;;;;6246567;23;20140;-78
2023/02/14 10:37:13;;;;;;;38.73;21.90;;;10.70;99.90;;;;;;6246913;23;20136;-77
2023/02/14 10:39:53;;;;;;;36.53;22.10;;;11.00;99.90;;;;;;6183655;23;20248;-78
2023/02/14 10:42:43;;;;;;;43.87;22.47;;;11.10;99.90;;;;;;6241683;23;20155;-79
2023/02/14 10:45:16;;;;;;;38.83;21.27;;;11.20;99.90;;;;;;6246104;23;20226;-79
2023/02/14 10:48:23;;;;;;;33.87;21.70;;;11.30;99.90;;;;;;6245566;23;20176;-77
2023/02/14 10:50:55;;;;;;;39.23;22.10;;;11.50;99.90;;;;;;6182115;23;20163;-79
2023/02/14 10:53:53;;;;;;;33.87;20.17;;;11.30;99.90;;;;;;6237721;23;20155;-77
2023/02/14 10:56:26;;;;;;;36.23;21.50;;;11.60;99.90;;;;;;6215257;23;20193;-79
2023/02/14 10:58:56;;;;;;;33.57;19.40;;;11.90;99.90;;;;;;6220869;23;20210;-78
2023/02/14 11:01:23;;;;;;;37.73;22.27;;;12.20;99.90;;;;;;6247763;23;20458;-78
2023/02/14 11:04:07;;;;;;;33.33;19.97;;;12.40;99.90;;;;;;6221028;23;20167;-78
2023/02/14 11:06:33;;;;;;;32.53;20.57;;;12.90;99.90;;;;;;6245592;23;20226;-78
2023/02/14 11:09:00;;;;;;;36.97;19.87;;;13.40;99.90;;;;;;6245127;23;20198;-78
2023/02/14 11:11:47;;;;;;;35.67;21.70;;;13.90;99.90;;;;;;6220890;23;20178;-78
2023/02/14 11:14:28;;;;;;;32.40;19.20;;;14.50;99.90;;;;;;6247389;23;20131;-78
2023/02/14 11:16:56;;;;;;;30.60;19.37;;;14.50;99.90;;;;;;6247708;23;20143;-79
2023/02/14 11:19:24;;;;;;;30.37;18.40;;;14.60;99.90;;;;;;6220424;23;20183;-79
2023/02/14 11:21:53;;;;;;;37.47;21.27;;;15.20;99.90;;;;;;6247421;23;20137;-77
2023/02/14 11:24:31;;;;;;;38.50;20.40;;;15.50;99.90;;;;;;6249683;23;20535;-78
2023/02/14 11:27:14;;;;;;;30.70;19.90;;;15.70;99.90;;;;;;6249174;23;20144;-79
2023/02/14 11:29:42;;;;;;;31.70;20.47;;;15.90;99.80;;;;;;6220421;23;20194;-78
2023/02/14 11:32:09;;;;;;;33.90;20.30;;;16.40;99.20;;;;;;6247801;23;20139;-79
2023/02/14 11:34:40;;;;;;;33.77;20.20;;;16.80;98.20;;;;;;6220836;23;20163;-79
2023/02/14 11:37:37;;;;;;;33.63;20.47;;;17.30;96.80;;;;;;6247095;23;20131;-79
2023/02/14 11:40:04;;;;;;;33.67;20.63;;;17.70;96.70;;;;;;6246023;23;20162;-79
2023/02/14 11:42:36;;;;;;;34.60;20.37;;;18.10;96.00;;;;;;6247505;23;20135;-79
2023/02/14 11:45:04;;;;;;;30.13;19.97;;;18.40;94.40;;;;;;6220634;23;20145;-79
2023/02/14 11:47:33;;;;;;;42.03;21.70;;;18.80;93.50;;;;;;6245427;23;20586;-79
2023/02/14 11:50:01;;;;;;;37.60;21.13;;;19.00;92.70;;;;;;6221100;23;20208;-79
2023/02/14 11:52:28;;;;;;;34.20;20.07;;;19.10;92.50;;;;;;6220534;23;20147;-79
2023/02/14 11:54:56;;;;;;;32.03;20.13;;;19.50;92.50;;;;;;6247611;23;20206;-78
2023/02/14 11:57:27;;;;;;;34.30;20.37;;;19.70;92.10;;;;;;6220859;23;20626;-79
2023/02/14 11:59:55;;;;;;;34.73;20.70;;;20.30;91.20;;;;;;6221655;23;20573;-80
2023/02/14 12:02:34;;;;;;;34.23;21.80;;;20.70;90.40;;;;;;6246673;23;20131;-80
2023/02/14 12:05:22;;;;;;;32.13;20.97;;;20.50;89.60;;;;;;6247433;23;20134;-79
2023/02/14 12:07:54;;;;;;;32.93;20.30;;;20.30;90.10;;;;;;6219434;23;20482;-81
2023/02/14 12:10:29;;;;;;;32.33;20.63;;;20.30;90.10;;;;;;6247022;23;20136;-80
2023/02/14 12:13:07;;;;;;;33.43;20.33;;;20.40;89.70;;;;;;6246222;23;20135;-81
2023/02/14 12:15:55;;;;;;;33.67;20.37;;;20.60;89.20;;;;;;6219849;23;20171;-80
2023/02/14 12:18:36;;;;;;;31.53;20.03;;;20.70;88.60;;;;;;6237844;23;20620;-80
2023/02/14 12:21:32;;;;;;;33.20;19.67;;;21.10;88.70;;;;;;6219969;23;20200;-80
2023/02/14 12:24:39;;;;;;;33.07;20.80;;;21.00;88.40;;;;;;6220010;23;20245;-81
2023/02/14 12:27:26;;;;;;;33.10;20.83;;;21.20;87.10;;;;;;6211982;23;20174;-79
2023/02/14 12:30:06;;;;;;;35.60;21.67;;;22.20;85.70;;;;;;6219980;23;20230;-78
2023/02/14 12:32:32;;;;;;;36.20;21.43;;;22.40;84.10;;;;;;6247321;23;20162;-78
2023/02/14 12:35:06;;;;;;;33.13;20.07;;;22.30;83.80;;;;;;6220530;23;20613;-78
2023/02/14 12:37:53;;;;;;;33.03;20.33;;;22.40;82.40;;;;;;6219740;23;20184;-79
2023/02/14 12:40:41;;;;;;;33.63;20.93;;;21.90;83.00;;;;;;6219524;23;20143;-79
2023/02/14 12:43:49;;;;;;;36.23;23.20;;;22.50;82.60;;;;;;6247894;23;20462;-79
2023/02/14 12:46:17;;;;;;;34.60;22.77;;;23.00;81.40;;;;;;6212271;23;20161;-79
2023/02/14 12:48:52;;;;;;;34.00;22.77;;;23.20;81.50;;;;;;6218796;23;20647;-75
2023/02/14 12:51:45;;;;;;;32.83;22.53;;;23.20;80.60;;;;;;6245189;23;20222;-75
2023/02/14 12:54:30;;;;;;;34.40;21.53;;;23.50;80.50;;;;;;6245271;23;20132;-75
2023/02/14 12:57:23;;;;;;;35.70;21.87;;;23.50;78.70;;;;;;6218397;23;20167;-75
2023/02/14 13:00:13;;;;;;;38.20;22.23;;;23.60;78.50;;;;;;6245329;23;20159;-75
2023/02/14 13:03:04;;;;;;;32.47;21.23;;;23.30;78.00;;;;;;6218003;23;20278;-75
2023/02/14 13:05:32;;;;;;;34.70;21.97;;;23.80;77.60;;;;;;6244607;23;20588;-75
2023/02/14 13:08:11;;;;;;;32.77;20.00;;;24.20;76.50;;;;;;6218197;23;20162;-76
2023/02/14 13:10:49;;;;;;;30.73;21.43;;;24.60;75.50;;;;;;6244518;23;20197;-74
2023/02/14 13:13:40;;;;;;;31.00;21.03;;;24.60;75.00;;;;;;6244969;23;20182;-74
2023/02/14 13:16:22;;;;;;;33.13;20.27;;;25.00;74.50;;;;;;6218233;23;20187;-75
2023/02/14 13:19:05;;;;;;;32.17;20.43;;;25.30;73.20;;;;;;6217651;23;20496;-74
2023/02/14 13:21:36;;;;;;;31.87;20.93;;;26.00;72.20;;;;;;6218149;23;20234;-75